Time;durP1;ratioP1;P1;durP2;ratioP2;P2;SDS_P1;SDS_P2;PMS_P1;PMS_P2;Temp;Humidity;BMP_temperature;BMP_pressure;BME280_temperature;BME280_humidity;BME280_pressure;Samples;Min_cycle;Max_cycle;Signal;HPM_P1;HPM_P2
2024/01/13 00:01:47;;;;;;;40.03;24.27;;;;;;;1.04;100.00;100293.56;5068094;28;20025;-69
2024/01/13 00:04:12;;;;;;;54.50;33.80;;;;;;;0.77;100.00;100229.75;5067881;28;20449;-69
2024/01/13 00:06:38;;;;;;;36.30;23.10;;;;;;;1.07;100.00;100281.94;5049872;28;20115;-70
2024/01/13 00:09:03;;;;;;;34.95;21.80;;;;;;;1.15;100.00;100280.38;5067712;28;20111;-70
2024/01/13 00:11:29;;;;;;;33.47;20.83;;;;;;;1.01;100.00;100274.31;5054756;28;20507;-69
2024/01/13 00:13:54;;;;;;;45.28;28.85;;;;;;;0.96;100.00;100268.41;5087360;28;20035;-73
2024/01/13 00:16:20;;;;;;;35.13;22.70;;;;;;;0.89;100.00;100261.66;5068159;28;20036;-70
2024/01/13 00:18:45;;;;;;;37.22;24.02;;;;;;;1.06;100.00;100299.44;5088500;28;20394;-70
2024/01/13 00:21:10;;;;;;;35.63;23.10;;;;;;;1.12;100.00;100305.38;5069840;28;20186;-69
2024/01/13 00:23:36;;;;;;;34.20;21.70;;;;;;;1.13;100.00;100271.19;5087285;28;20406;-70
2024/01/13 00:26:02;;;;;;;52.75;29.85;;;;;;;0.67;100.00;100257.13;5087512;28;20032;-70
2024/01/13 00:28:27;;;;;;;39.00;25.38;;;;;;;1.01;100.00;100311.88;5087459;28;20024;-71
2024/01/13 00:30:52;;;;;;;38.92;24.95;;;;;;;1.23;100.00;100333.09;5087366;28;20051;-70
2024/01/13 00:33:18;;;;;;;41.03;24.55;;;;;;;0.96;100.00;100290.94;5087727;28;20042;-69
2024/01/13 00:35:43;;;;;;;37.25;23.48;;;;;;;0.71;100.00;100269.69;5087680;28;20468;-69
2024/01/13 00:38:09;;;;;;;42.88;25.88;;;;;;;0.63;100.00;100260.41;5087420;28;20036;-69
2024/01/13 00:40:34;;;;;;;45.28;27.83;;;;;;;0.85;100.00;100260.75;5087714;28;20081;-69
2024/01/13 00:43:00;;;;;;;42.28;25.58;;;;;;;0.99;100.00;100323.50;5087969;28;20036;-69
2024/01/13 00:45:25;;;;;;;38.28;23.33;;;;;;;0.72;100.00;100271.38;5087329;28;20055;-70
2024/01/13 00:47:51;;;;;;;36.03;22.55;;;;;;;1.02;100.00;100345.25;5087522;28;20497;-68
2024/01/13 00:50:16;;;;;;;35.78;22.63;;;;;;;0.98;100.00;100321.84;5090830;28;20050;-69
2024/01/13 00:52:42;;;;;;;37.70;23.50;;;;;;;0.84;100.00;100324.13;5072879;28;20028;-69
2024/01/13 00:55:08;;;;;;;36.17;22.83;;;;;;;0.86;100.00;100321.63;5072961;28;20448;-70
2024/01/13 00:57:33;;;;;;;37.00;23.98;;;;;;;0.62;100.00;100297.06;5073189;28;20031;-70
2024/01/13 00:59:59;;;;;;;36.58;22.38;;;;;;;0.92;100.00;100314.22;5090053;28;20491;-70
2024/01/13 01:02:24;;;;;;;34.83;22.20;;;;;;;0.30;100.00;100269.84;5072868;28;20078;-70
2024/01/13 01:04:49;;;;;;;33.50;22.30;;;;;;;0.91;100.00;100320.06;5091087;28;20520;-70
2024/01/13 01:07:24;;;;;;;34.65;21.23;;;;;;;1.11;100.00;100317.88;5091048;28;20110;-71
2024/01/13 01:09:50;;;;;;;34.38;21.25;;;;;;;0.56;100.00;100271.09;5090134;28;20089;-70
2024/01/13 01:12:15;;;;;;;34.17;21.80;;;;;;;0.63;100.00;100252.91;5072335;28;20477;-71
2024/01/13 01:14:41;;;;;;;32.63;21.20;;;;;;;0.79;100.00;100300.69;5091260;28;20543;-74
2024/01/13 01:17:06;;;;;;;32.97;20.67;;;;;;;0.85;100.00;100305.78;5091009;28;20044;-71
2024/01/13 01:19:32;;;;;;;33.58;22.35;;;;;;;0.84;100.00;100310.75;5090959;28;20023;-70
2024/01/13 01:21:57;;;;;;;33.40;21.23;;;;;;;0.54;100.00;100261.09;5071804;28;20486;-74
2024/01/13 01:24:22;;;;;;;32.45;20.73;;;;;;;0.44;100.00;100256.75;5072655;28;20066;-71
2024/01/13 01:26:48;;;;;;;33.95;21.92;;;;;;;0.91;100.00;100327.56;5072510;28;20036;-71
2024/01/13 01:29:13;;;;;;;36.85;22.98;;;;;;;0.69;100.00;100278.81;5091182;28;20517;-71
2024/01/13 01:31:39;;;;;;;47.72;26.95;;;;;;;0.41;100.00;100276.72;5090308;28;20036;-70
2024/01/13 01:34:04;;;;;;;67.30;45.45;;;;;;;0.68;100.00;100291.31;5072404;28;20090;-71
2024/01/13 01:36:29;;;;;;;70.15;38.15;;;;;;;0.84;100.00;100334.13;5090270;28;20462;-70
2024/01/13 01:38:55;;;;;;;65.50;36.63;;;;;;;0.75;100.00;100270.59;5090145;28;20493;-70
2024/01/13 01:41:20;;;;;;;51.38;32.15;;;;;;;0.55;100.00;100270.28;5090486;28;20540;-70
2024/01/13 01:43:46;;;;;;;47.13;29.45;;;;;;;0.61;100.00;100282.88;5071463;28;20506;-70
2024/01/13 01:46:13;;;;;;;42.72;27.75;;;;;;;0.93;100.00;100328.44;5072006;28;20543;-70
2024/01/13 01:48:40;;;;;;;39.60;26.30;;;;;;;0.43;100.00;100270.06;5071774;28;20024;-70
2024/01/13 01:51:06;;;;;;;45.33;27.50;;;;;;;0.84;100.00;100285.75;5090272;28;20038;-70
2024/01/13 01:53:34;;;;;;;38.33;24.80;;;;;;;0.58;100.00;100287.81;5076449;28;20028;-72
2024/01/13 01:56:04;;;;;;;38.58;23.80;;;;;;;0.75;100.00;100303.94;5096261;28;20032;-70
2024/01/13 01:58:30;;;;;;;38.72;24.98;;;;;;;0.72;100.00;100291.41;5090832;28;21401;-70
2024/01/13 02:00:56;;;;;;;44.08;27.52;;;;;;;0.58;100.00;100285.31;5090615;28;20034;-70
2024/01/13 02:03:22;;;;;;;39.90;25.17;;;;;;;0.82;100.00;100348.28;5071487;28;20465;-70
2024/01/13 02:05:47;;;;;;;41.53;24.95;;;;;;;0.89;100.00;100359.22;5090136;28;20467;-70
2024/01/13 02:08:13;;;;;;;40.70;25.65;;;;;;;0.99;100.00;100357.72;5090475;28;20149;-71
2024/01/13 02:10:39;;;;;;;37.75;24.90;;;;;;;0.69;100.00;100296.34;5090547;28;20119;-70
2024/01/13 02:13:04;;;;;;;38.28;24.38;;;;;;;0.91;100.00;100332.59;5071749;28;20040;-70
2024/01/13 02:15:30;;;;;;;37.90;24.23;;;;;;;1.12;100.00;100342.06;5089951;28;20021;-70
2024/01/13 02:17:55;;;;;;;41.33;25.27;;;;;;;0.72;100.00;100318.91;5090051;28;20044;-70
2024/01/13 02:20:20;;;;;;;40.15;25.30;;;;;;;0.73;100.00;100322.25;5090058;28;20028;-70
2024/01/13 02:22:46;;;;;;;40.08;24.88;;;;;;;0.79;100.00;100337.38;5071392;28;20055;-72
2024/01/13 02:25:11;;;;;;;39.08;25.20;;;;;;;0.82;100.00;100338.28;5089745;28;20473;-71
2024/01/13 02:27:37;;;;;;;38.65;25.75;;;;;;;0.69;100.00;100298.84;5088894;28;20024;-70
2024/01/13 02:30:03;;;;;;;44.13;26.77;;;;;;;0.62;100.00;100293.72;5089059;28;20039;-70
2024/01/13 02:32:28;;;;;;;45.75;29.17;;;;;;;1.12;100.00;100354.59;5089510;28;20034;-69
2024/01/13 02:34:53;;;;;;;50.63;31.40;;;;;;;0.62;100.00;100318.72;5090035;28;20055;-70
2024/01/13 02:37:19;;;;;;;49.17;30.48;;;;;;;0.74;100.00;100363.97;5088385;28;20040;-71
2024/01/13 02:39:46;;;;;;;46.88;29.48;;;;;;;0.92;100.00;100383.44;5071392;28;20028;-69
2024/01/13 02:42:11;;;;;;;45.38;28.55;;;;;;;0.80;100.00;100367.41;5069438;28;20161;-70
2024/01/13 02:44:37;;;;;;;44.67;28.42;;;;;;;0.70;100.00;100310.53;5070309;28;20035;-73
2024/01/13 02:47:05;;;;;;;43.33;29.02;;;;;;;1.03;100.00;100349.44;5089515;28;20531;-71
2024/01/13 02:49:30;;;;;;;46.42;29.48;;;;;;;0.63;100.00;100297.91;5088735;28;20090;-70
2024/01/13 02:51:56;;;;;;;43.58;27.85;;;;;;;0.98;100.00;100361.88;5087983;28;20032;-71
2024/01/13 02:54:21;;;;;;;43.70;28.70;;;;;;;0.56;100.00;100323.63;5089322;28;20093;-69
2024/01/13 02:56:46;;;;;;;44.72;28.35;;;;;;;0.78;100.00;100376.56;5089147;28;20388;-69
2024/01/13 02:59:12;;;;;;;40.55;26.13;;;;;;;0.83;100.00;100367.47;5087749;28;20204;-69
2024/01/13 03:01:38;;;;;;;39.15;25.75;;;;;;;0.88;100.00;100350.03;5088378;28;20490;-70
2024/01/13 03:04:03;;;;;;;43.13;26.40;;;;;;;0.70;100.00;100325.56;5088632;28;20035;-70
2024/01/13 03:06:29;;;;;;;39.67;25.23;;;;;;;0.91;100.00;100354.25;5070116;28;20048;-71
2024/01/13 03:08:55;;;;;;;38.67;25.10;;;;;;;0.85;100.00;100375.00;5069671;28;20065;-71
2024/01/13 03:11:20;;;;;;;37.03;24.52;;;;;;;0.76;100.00;100319.81;5088340;28;20400;-70
2024/01/13 03:13:46;;;;;;;40.50;25.10;;;;;;;1.08;100.00;100383.72;5068900;28;20046;-69
2024/01/13 03:16:12;;;;;;;41.88;25.73;;;;;;;1.06;100.00;100380.38;5069825;28;20043;-69
2024/01/13 03:18:38;;;;;;;38.15;25.40;;;;;;;0.81;100.00;100368.28;5086963;28;20035;-69
2024/01/13 03:21:04;;;;;;;40.88;26.80;;;;;;;0.74;100.00;100361.47;5088403;28;20483;-69
2024/01/13 03:23:30;;;;;;;38.13;25.92;;;;;;;0.99;100.00;100353.53;5088450;28;20130;-70
2024/01/13 03:25:55;;;;;;;42.33;26.17;;;;;;;0.83;100.00;100331.63;5068942;28;20063;-69
2024/01/13 03:28:22;;;;;;;40.75;25.90;;;;;;;0.72;100.00;100321.41;5069630;28;20062;-70
2024/01/13 03:30:47;;;;;;;42.72;27.30;;;;;;;0.97;100.00;100351.84;5088123;28;20024;-72
2024/01/13 03:33:12;;;;;;;42.00;26.85;;;;;;;0.84;100.00;100361.66;5077125;28;20523;-69
2024/01/13 03:35:38;;;;;;;40.97;27.40;;;;;;;0.91;100.00;100366.75;5085918;28;20036;-70
2024/01/13 03:38:04;;;;;;;39.03;26.90;;;;;;;0.76;100.00;100383.19;5075074;28;20055;-70
2024/01/13 03:40:29;;;;;;;42.63;27.05;;;;;;;0.88;100.00;100370.91;5080681;28;20556;-70
2024/01/13 03:42:55;;;;;;;46.10;28.23;;;;;;;0.97;100.00;100361.84;5079256;28;20039;-69
2024/01/13 03:45:20;;;;;;;47.78;30.15;;;;;;;0.88;100.00;100387.56;5065314;28;20036;-72
2024/01/13 03:47:45;;;;;;;45.53;30.33;;;;;;;0.89;100.00;100381.75;5086125;28;20115;-71
2024/01/13 03:50:11;;;;;;;48.65;30.73;;;;;;;0.64;100.00;100337.09;5064800;28;20058;-74
2024/01/13 03:52:37;;;;;;;47.22;31.40;;;;;;;0.62;100.00;100353.75;5080833;28;20028;-70
2024/01/13 03:55:03;;;;;;;51.40;32.80;;;;;;;1.08;100.00;100386.25;5087909;28;20043;-69
2024/01/13 03:57:28;;;;;;;48.85;30.63;;;;;;;0.58;100.00;100367.84;5086551;28;20040;-70
2024/01/13 03:59:53;;;;;;;49.72;31.67;;;;;;;0.34;100.00;100304.91;5062089;28;20181;-70
2024/01/13 04:02:25;;;;;;;42.92;26.88;;;;;;;0.92;100.00;100416.81;5088639;28;20028;-69
2024/01/13 04:04:50;;;;;;;44.88;26.83;;;;;;;0.55;100.00;100356.97;5068782;28;20118;-70
2024/01/13 04:07:15;;;;;;;42.05;26.92;;;;;;;0.80;100.00;100384.06;5087631;28;20040;-70
2024/01/13 04:09:41;;;;;;;45.17;28.05;;;;;;;0.65;100.00;100363.81;5069884;28;20035;-71
2024/01/13 04:12:07;;;;;;;44.00;29.23;;;;;;;0.86;100.00;100416.72;5069372;28;20113;-70
2024/01/13 04:14:32;;;;;;;49.20;30.80;;;;;;;0.31;100.00;100324.00;5069596;28;20518;-69
2024/01/13 04:16:59;;;;;;;49.08;32.05;;;;;;;0.65;100.00;100376.31;5086679;28;20525;-71
2024/01/13 04:19:25;;;;;;;45.20;29.45;;;;;;;0.52;100.00;100361.88;5103214;28;20076;-70
2024/01/13 04:21:50;;;;;;;43.28;28.88;;;;;;;0.78;100.00;100416.56;5087602;28;20036;-71
2024/01/13 04:24:15;;;;;;;44.28;28.17;;;;;;;0.91;100.00;100429.31;5088557;28;20039;-70
2024/01/13 04:26:41;;;;;;;44.03;28.48;;;;;;;0.89;100.00;100434.28;5091653;28;21632;-70
2024/01/13 04:29:06;;;;;;;44.10;28.42;;;;;;;0.80;100.00;100411.59;5091541;28;20024;-71
2024/01/13 04:31:32;;;;;;;47.92;29.88;;;;;;;1.03;100.00;100442.03;5091689;28;20079;-70
2024/01/13 04:33:57;;;;;;;52.90;33.35;;;;;;;0.81;100.00;100404.09;5092377;28;20028;-70
2024/01/13 04:36:22;;;;;;;56.95;36.55;;;;;;;0.79;100.00;100378.22;5091828;28;20028;-70
2024/01/13 04:38:49;;;;;;;54.33;35.38;;;;;;;0.72;100.00;100438.97;5091507;28;20411;-70
2024/01/13 04:41:15;;;;;;;53.90;35.10;;;;;;;0.59;100.00;100392.06;5073310;28;21670;-72
2024/01/13 04:43:41;;;;;;;55.78;33.95;;;;;;;0.49;100.00;100392.69;5073407;28;20024;-71
2024/01/13 04:46:07;;;;;;;53.53;33.78;;;;;;;0.54;100.00;100398.63;5073264;28;20028;-71
2024/01/13 04:48:33;;;;;;;51.53;32.42;;;;;;;0.39;100.00;100395.84;5072775;28;20101;-70
2024/01/13 04:50:58;;;;;;;51.95;34.75;;;;;;;0.60;100.00;100402.88;5089695;28;20023;-71
2024/01/13 04:53:24;;;;;;;58.45;37.33;;;;;;;0.70;100.00;100453.13;5091713;28;20073;-71
2024/01/13 04:55:50;;;;;;;54.97;36.10;;;;;;;1.09;100.00;100464.69;5091085;28;20032;-72
2024/01/13 04:58:15;;;;;;;51.72;34.67;;;;;;;0.56;100.00;100422.00;5073162;28;20028;-71
2024/01/13 05:00:41;;;;;;;51.58;33.00;;;;;;;0.95;100.00;100443.56;5091384;28;20502;-72
2024/01/13 05:03:06;;;;;;;50.63;31.77;;;;;;;0.99;100.00;100443.63;5091413;28;20016;-71
2024/01/13 05:05:32;;;;;;;55.92;35.38;;;;;;;0.77;100.00;100439.06;5087964;28;20063;-72
2024/01/13 05:07:57;;;;;;;46.25;29.75;;;;;;;0.81;100.00;100404.09;5083688;28;20079;-72
2024/01/13 05:10:23;;;;;;;53.90;33.22;;;;;;;0.99;100.00;100460.31;5084838;28;20078;-74
2024/01/13 05:12:48;;;;;;;56.85;36.25;;;;;;;0.99;100.00;100476.16;5081560;28;20113;-71
2024/01/13 05:15:14;;;;;;;56.17;34.75;;;;;;;0.91;100.00;100471.84;5085330;28;20028;-71
2024/01/13 05:17:39;;;;;;;54.58;34.95;;;;;;;0.75;100.00;100433.19;5065350;28;20046;-73
2024/01/13 05:20:05;;;;;;;53.65;34.80;;;;;;;0.96;100.00;100477.78;5059294;28;20032;-71
2024/01/13 05:22:31;;;;;;;58.28;38.97;;;;;;;1.01;100.00;100494.53;5078971;28;20114;-70
2024/01/13 05:24:56;;;;;;;59.17;37.28;;;;;;;0.68;100.00;100441.38;5076273;28;20032;-71
2024/01/13 05:27:22;;;;;;;54.67;35.40;;;;;;;0.69;100.00;100428.09;5084390;28;20024;-71
2024/01/13 05:29:47;;;;;;;60.35;36.33;;;;;;;0.77;100.00;100489.09;5080782;28;20487;-71
2024/01/13 05:32:13;;;;;;;64.70;38.80;;;;;;;0.62;100.00;100411.25;5078524;28;20025;-71
2024/01/13 05:34:39;;;;;;;60.58;36.10;;;;;;;0.62;100.00;100416.25;5082870;28;20036;-71
2024/01/13 05:37:05;;;;;;;58.67;35.72;;;;;;;0.69;100.00;100433.09;5083138;28;20067;-71
2024/01/13 05:39:31;;;;;;;56.67;33.42;;;;;;;0.92;100.00;100458.50;5064664;28;20513;-74
2024/01/13 05:41:58;;;;;;;57.58;36.22;;;;;;;0.71;100.00;100428.94;5065139;28;20032;-71
2024/01/13 05:44:23;;;;;;;56.22;36.08;;;;;;;0.52;100.00;100424.41;5085992;28;20402;-71
2024/01/13 05:46:49;;;;;;;52.17;33.40;;;;;;;1.09;100.00;100488.03;5085527;28;20030;-77
2024/01/13 05:49:14;;;;;;;46.78;28.08;;;;;;;0.49;100.00;100414.34;5076270;28;20372;-70
2024/01/13 05:51:40;;;;;;;47.03;28.17;;;;;;;0.68;100.00;100466.41;5078205;28;20040;-70
2024/01/13 05:54:05;;;;;;;44.25;26.20;;;;;;;0.95;100.00;100446.91;5059147;28;20029;-70
2024/01/13 05:56:31;;;;;;;43.35;26.17;;;;;;;0.54;100.00;100410.25;5079950;28;20032;-71
2024/01/13 05:58:56;;;;;;;47.83;28.58;;;;;;;0.93;100.00;100457.72;5079379;28;20032;-71
2024/01/13 06:01:24;;;;;;;54.72;33.78;;;;;;;0.95;100.00;100451.91;5059961;28;20024;-71
2024/01/13 06:03:50;;;;;;;50.42;31.55;;;;;;;0.77;100.00;100459.91;5082228;28;20031;-71
2024/01/13 06:06:17;;;;;;;49.45;28.27;;;;;;;0.87;100.00;100451.75;5060757;28;20036;-70
2024/01/13 06:08:42;;;;;;;48.05;27.65;;;;;;;0.41;100.00;100360.84;5083253;28;20020;-70
2024/01/13 06:11:08;;;;;;;64.07;35.67;;;;;;;1.03;100.00;100467.88;5078378;28;20033;-70
2024/01/13 06:13:33;;;;;;;53.40;33.22;;;;;;;0.99;100.00;100433.63;5090389;28;20039;-70
2024/01/13 06:15:59;;;;;;;69.50;42.67;;;;;;;1.08;100.00;100452.97;5089071;28;20414;-70
2024/01/13 06:18:24;;;;;;;113.22;66.07;;;;;;;0.88;100.00;100443.44;5070919;28;20103;-70
2024/01/13 06:20:50;;;;;;;83.80;50.95;;;;;;;0.40;100.00;100389.16;5090029;28;20196;-70
2024/01/13 06:23:15;;;;;;;63.92;39.50;;;;;;;0.53;100.00;100379.44;5089550;28;20032;-70
2024/01/13 06:25:41;;;;;;;55.58;34.95;;;;;;;1.57;100.00;100436.28;5089813;28;20031;-71
2024/01/13 06:28:06;;;;;;;53.65;32.28;;;;;;;0.90;100.00;100385.94;5089277;28;20036;-70
2024/01/13 06:30:32;;;;;;;49.17;29.95;;;;;;;1.15;100.00;100418.03;5089323;28;20028;-71
2024/01/13 06:32:57;;;;;;;46.63;28.30;;;;;;;0.93;100.00;100427.69;5071223;28;20032;-71
2024/01/13 06:35:23;;;;;;;70.85;41.38;;;;;;;0.98;100.00;100416.94;5089341;28;20413;-72
2024/01/13 06:37:50;;;;;;;69.75;43.33;;;;;;;0.84;100.00;100448.38;5089050;28;20076;-72
2024/01/13 06:40:15;;;;;;;89.75;53.28;;;;;;;1.05;100.00;100452.94;5071203;28;20118;-70
2024/01/13 06:42:41;;;;;;;120.35;64.82;;;;;;;0.83;100.00;100444.19;5070503;28;20036;-71
2024/01/13 06:45:07;;;;;;;224.10;130.25;;;;;;;0.92;100.00;100435.97;5089370;28;20039;-71
2024/01/13 06:47:32;;;;;;;81.05;50.03;;;;;;;0.61;100.00;100390.44;5067923;28;20425;-71
2024/01/13 06:49:57;;;;;;;68.00;42.30;;;;;;;0.43;100.00;100404.22;5088293;28;20489;-72
2024/01/13 06:52:23;;;;;;;56.55;35.50;;;;;;;0.51;100.00;100375.22;5089261;28;20020;-70
2024/01/13 06:54:48;;;;;;;54.25;34.55;;;;;;;0.60;100.00;100421.25;5069536;28;20032;-70
2024/01/13 06:57:15;;;;;;;61.78;38.95;;;;;;;0.46;100.00;100404.28;5064115;28;20032;-69
2024/01/13 06:59:43;;;;;;;57.22;37.15;;;;;;;0.63;100.00;100423.81;5069817;28;20030;-68
2024/01/13 07:02:09;;;;;;;54.42;34.67;;;;;;;0.51;100.00;100422.72;5088344;28;20028;-70
2024/01/13 07:04:37;;;;;;;50.85;32.92;;;;;;;0.43;100.00;100419.22;5068023;28;20453;-75
2024/01/13 07:07:02;;;;;;;51.55;34.80;;;;;;;0.33;100.00;100429.88;5086901;28;20027;-70
2024/01/13 07:09:28;;;;;;;56.42;35.05;;;;;;;0.24;100.00;100430.50;5088032;28;20090;-70
2024/01/13 07:11:53;;;;;;;72.32;47.28;;;;;;;0.58;100.00;100485.38;5073330;28;20464;-69
2024/01/13 07:14:18;;;;;;;89.63;55.22;;;;;;;0.07;100.00;100431.81;5075148;28;20037;-69
2024/01/13 07:16:44;;;;;;;107.80;64.22;;;;;;;0.39;100.00;100484.97;5071387;28;20129;-69
2024/01/13 07:19:09;;;;;;;85.72;53.28;;;;;;;0.37;100.00;100474.09;5073534;28;20036;-68
2024/01/13 07:21:35;;;;;;;63.40;37.92;;;;;;;0.44;100.00;100488.41;5079896;28;20035;-68
2024/01/13 07:24:00;;;;;;;59.58;36.42;;;;;;;0.58;100.00;100515.41;5092433;28;20088;-68
2024/01/13 07:26:26;;;;;;;55.72;33.08;;;;;;;0.44;100.00;100459.25;5090508;28;20478;-70
2024/01/13 07:28:51;;;;;;;52.60;32.22;;;;;;;1.65;100.00;100537.44;5092058;28;20517;-69
2024/01/13 07:31:17;;;;;;;48.95;30.75;;;;;;;1.01;100.00;100491.22;5072789;28;20035;-68
2024/01/13 07:33:42;;;;;;;48.05;30.98;;;;;;;1.08;100.00;100513.03;5089504;28;20482;-69
2024/01/13 07:36:08;;;;;;;42.67;27.45;;;;;;;1.33;100.00;100520.16;5093653;28;20032;-73
2024/01/13 07:38:33;;;;;;;46.05;29.13;;;;;;;1.84;100.00;100525.22;5080355;28;20553;-70
2024/01/13 07:40:59;;;;;;;42.13;27.23;;;;;;;1.76;100.00;100538.44;5095545;28;20032;-69
2024/01/13 07:43:24;;;;;;;48.08;28.45;;;;;;;0.82;100.00;100424.97;5071516;28;20422;-69
2024/01/13 07:45:49;;;;;;;49.83;31.23;;;;;;;1.51;100.00;100458.72;5089720;28;20776;-69
2024/01/13 07:48:15;;;;;;;67.85;40.53;;;;;;;1.86;100.00;100521.94;5091912;28;20032;-69
2024/01/13 07:50:40;;;;;;;67.72;40.22;;;;;;;1.74;100.00;100532.56;5094851;28;20032;-69
2024/01/13 07:53:06;;;;;;;51.80;32.60;;;;;;;1.23;100.00;100463.25;5074847;28;20046;-68
2024/01/13 07:55:31;;;;;;;36.10;24.05;;;;;;;1.49;100.00;100522.97;5093716;28;20026;-70
2024/01/13 07:57:56;;;;;;;38.90;24.27;;;;;;;1.87;100.00;100515.22;5091943;28;20031;-69
2024/01/13 08:00:23;;;;;;;45.65;30.05;;;;;;;1.72;100.00;100493.28;5084155;28;21490;-68
2024/01/13 08:02:49;;;;;;;42.00;26.25;;;;;;;1.99;100.00;100488.69;5072111;28;20566;-69
2024/01/13 08:05:14;;;;;;;51.53;31.27;;;;;;;2.10;100.00;100544.84;5090574;28;20042;-68
2024/01/13 08:07:40;;;;;;;46.42;28.13;;;;;;;1.44;100.00;100547.09;5090301;28;20028;-68
2024/01/13 08:10:06;;;;;;;51.58;33.15;;;;;;;1.75;100.00;100546.81;5093355;28;20108;-69
2024/01/13 08:12:31;;;;;;;48.97;32.85;;;;;;;1.84;100.00;100498.50;5071775;28;20400;-70
2024/01/13 08:14:57;;;;;;;53.35;33.67;;;;;;;2.37;100.00;100559.44;5053090;28;20414;-68
2024/01/13 08:17:22;;;;;;;37.17;24.52;;;;;;;2.08;100.00;100546.47;5058982;28;20048;-67
2024/01/13 08:19:48;;;;;;;37.05;24.27;;;;;;;2.35;100.00;100556.06;5086674;28;20403;-68
2024/01/13 08:22:13;;;;;;;39.50;25.08;;;;;;;2.54;100.00;100571.41;5065744;28;20039;-69
2024/01/13 08:24:39;;;;;;;44.60;31.27;;;;;;;2.92;100.00;100558.50;5051395;28;20025;-70
2024/01/13 08:27:05;;;;;;;40.53;27.23;;;;;;;2.58;100.00;100460.22;5065524;28;20039;-72
2024/01/13 08:29:30;;;;;;;39.63;25.10;;;;;;;2.67;100.00;100502.97;5047682;28;20046;-68
2024/01/13 08:31:56;;;;;;;37.65;24.65;;;;;;;2.55;100.00;100522.94;5046417;28;20040;-69
2024/01/13 08:34:21;;;;;;;38.35;25.52;;;;;;;2.86;100.00;100490.66;5047701;28;20028;-68
2024/01/13 08:36:47;;;;;;;32.97;21.17;;;;;;;2.12;100.00;100469.66;5064127;28;20040;-70
2024/01/13 08:39:12;;;;;;;34.58;22.52;;;;;;;2.58;100.00;100479.44;5048761;28;20082;-70
2024/01/13 08:41:38;;;;;;;38.85;24.60;;;;;;;2.94;100.00;100525.06;5048962;28;20408;-70
2024/01/13 08:44:04;;;;;;;35.42;23.00;;;;;;;2.66;100.00;100487.91;5064245;28;20560;-68
2024/01/13 08:46:29;;;;;;;33.78;22.10;;;;;;;2.42;100.00;100516.03;5064183;28;20040;-69
2024/01/13 08:48:55;;;;;;;35.90;22.35;;;;;;;2.19;100.00;100499.00;5066200;28;20770;-67
2024/01/13 08:51:20;;;;;;;41.00;26.80;;;;;;;2.22;100.00;100504.06;5064311;28;20029;-69
2024/01/13 08:53:46;;;;;;;38.03;24.33;;;;;;;2.23;100.00;100458.94;5064917;28;20033;-68
2024/01/13 08:56:13;;;;;;;39.47;22.52;;;;;;;4.13;100.00;100513.56;5064780;28;20032;-69
2024/01/13 08:58:38;;;;;;;45.13;28.02;;;;;;;2.45;100.00;100493.53;5065052;28;20060;-69
2024/01/13 09:01:04;;;;;;;38.05;23.27;;;;;;;2.78;100.00;100473.00;5064739;28;20108;-69
2024/01/13 09:03:30;;;;;;;37.83;23.80;;;;;;;2.22;100.00;100479.00;5065338;28;20032;-70
2024/01/13 09:06:00;;;;;;;42.60;25.38;;;;;;;2.95;100.00;100484.06;5051381;28;20028;-71
2024/01/13 09:08:25;;;;;;;33.90;21.17;;;;;;;2.10;100.00;100434.53;5065646;28;20033;-70
2024/01/13 09:10:50;;;;;;;41.28;26.08;;;;;;;2.41;100.00;100438.28;5067993;28;20091;-70
2024/01/13 09:13:16;;;;;;;42.53;25.42;;;;;;;2.18;100.00;100437.97;5076268;28;20032;-68
2024/01/13 09:15:41;;;;;;;35.60;22.98;;;;;;;2.42;100.00;100465.03;5074105;28;20478;-67
2024/01/13 09:18:08;;;;;;;42.80;26.15;;;;;;;2.41;100.00;100465.88;5073594;28;20042;-67
2024/01/13 09:20:33;;;;;;;52.20;32.15;;;;;;;2.30;100.00;100447.31;5089405;28;20411;-71
2024/01/13 09:22:59;;;;;;;40.78;26.73;;;;;;;2.14;100.00;100437.94;5089713;28;20031;-70
2024/01/13 09:25:24;;;;;;;31.05;19.80;;;;;;;2.20;100.00;100397.91;5089320;28;20052;-71
2024/01/13 09:27:52;;;;;;;33.30;19.88;;;;;;;1.89;100.00;100361.56;5089583;28;20054;-70
2024/01/13 09:30:17;;;;;;;31.02;19.92;;;;;;;2.58;100.00;100382.44;5096784;28;20114;-69
2024/01/13 09:32:43;;;;;;;25.92;17.00;;;;;;;2.35;100.00;100378.00;5094168;28;21838;-69
2024/01/13 09:35:08;;;;;;;31.52;19.35;;;;;;;2.14;100.00;100365.22;5089058;28;20118;-71
2024/01/13 09:37:34;;;;;;;29.25;17.90;;;;;;;2.22;100.00;100361.97;5073284;28;20032;-70
2024/01/13 09:40:00;;;;;;;27.42;17.05;;;;;;;2.62;100.00;100404.22;5075338;28;20299;-71
2024/01/13 09:42:48;;;;;;;25.20;15.90;;;;;;;2.24;100.00;100322.69;5088603;28;20047;-70
2024/01/13 09:45:14;;;;;;;32.05;21.02;;;;;;;2.25;100.00;100353.63;5073405;28;20118;-70
2024/01/13 09:47:43;;;;;;;27.95;18.20;;;;;;;2.01;100.00;100320.75;5088486;28;20059;-70
2024/01/13 09:50:10;;;;;;;48.88;32.13;;;;;;;2.45;100.00;100363.09;5072942;28;20024;-69
2024/01/13 09:52:36;;;;;;;27.23;17.25;;;;;;;2.31;100.00;100343.69;5089199;28;20390;-71
2024/01/13 09:55:05;;;;;;;33.45;20.38;;;;;;;2.12;100.00;100344.31;5088402;28;20035;-72
2024/01/13 09:57:31;;;;;;;26.58;16.48;;;;;;;1.97;100.00;100294.81;5087333;28;20039;-70
2024/01/13 09:59:57;;;;;;;26.70;15.77;;;;;;;2.32;100.00;100332.81;5088702;28;20020;-71
2024/01/13 10:02:22;;;;;;;27.15;16.58;;;;;;;2.49;100.00;100313.78;5087514;28;20028;-70
2024/01/13 10:04:49;;;;;;;31.48;18.95;;;;;;;2.37;100.00;100301.09;5074643;28;20090;-70
2024/01/13 10:07:14;;;;;;;33.28;21.13;;;;;;;2.63;100.00;100307.22;5088396;28;20043;-71
2024/01/13 10:09:40;;;;;;;36.20;24.05;;;;;;;2.72;100.00;100292.22;5087637;28;20032;-70
2024/01/13 10:12:07;;;;;;;27.30;17.45;;;;;;;2.78;100.00;100279.72;5071616;28;20487;-70
2024/01/13 10:14:36;;;;;;;38.25;25.30;;;;;;;2.50;100.00;100272.78;5087824;28;20491;-71
2024/01/13 10:17:02;;;;;;;22.58;15.43;;;;;;;3.09;100.00;100311.78;5072214;28;20551;-71
2024/01/13 10:19:29;;;;;;;27.02;17.20;;;;;;;2.87;100.00;100278.97;5075407;28;20426;-71
2024/01/13 10:21:54;;;;;;;27.98;17.52;;;;;;;2.94;100.00;100274.00;5075811;28;20028;-71
2024/01/13 10:24:20;;;;;;;21.92;14.98;;;;;;;3.14;100.00;100305.13;5083208;28;20568;-71
2024/01/13 10:26:45;;;;;;;20.30;12.65;;;;;;;3.00;100.00;100275.72;5090465;28;20089;-70
2024/01/13 10:29:13;;;;;;;29.30;20.30;;;;;;;3.13;100.00;100283.34;5086911;28;20040;-71
2024/01/13 10:31:39;;;;;;;25.33;17.63;;;;;;;3.19;100.00;100275.84;5087986;28;20402;-71
2024/01/13 10:34:10;;;;;;;38.15;25.10;;;;;;;3.53;100.00;100257.63;5087659;28;20070;-71
2024/01/13 10:36:36;;;;;;;25.65;16.67;;;;;;;2.90;100.00;100148.47;5087315;28;20028;-70
2024/01/13 10:39:01;;;;;;;35.10;22.27;;;;;;;3.01;100.00;100184.50;5073817;28;20123;-73
2024/01/13 10:41:30;;;;;;;30.40;17.83;;;;;;;3.33;100.00;100188.00;5086592;28;20115;-71
2024/01/13 10:43:56;;;;;;;26.35;16.70;;;;;;;4.13;100.00;100223.47;5087987;28;20034;-72
2024/01/13 10:46:23;;;;;;;24.95;14.93;;;;;;;4.08;100.00;100207.53;5087793;28;20186;-70
2024/01/13 10:48:51;;;;;;;22.63;14.75;;;;;;;3.42;100.00;100203.97;5088327;28;20031;-72
2024/01/13 10:51:22;;;;;;;32.03;20.20;;;;;;;3.82;100.00;100196.56;5089338;28;20032;-71
2024/01/13 10:53:49;;;;;;;27.30;17.33;;;;;;;3.46;100.00;100167.13;5070307;28;20499;-70
2024/01/13 10:56:15;;;;;;;39.13;23.33;;;;;;;2.90;100.00;100121.69;5087845;28;20067;-71
2024/01/13 10:58:44;;;;;;;28.08;17.98;;;;;;;2.77;100.00;100112.44;5069788;28;20059;-72
2024/01/13 11:01:10;;;;;;;28.00;17.77;;;;;;;2.95;100.00;100179.47;5088071;28;20027;-71
2024/01/13 11:03:38;;;;;;;25.08;16.20;;;;;;;3.18;100.00;100168.69;5089548;28;20031;-73